createdAt,value
2023-05-10T00:00:40.912Z,15.20
2023-05-10T00:03:07.861Z,15.30
2023-05-10T00:05:34.809Z,15.30
2023-05-10T00:08:01.648Z,15.30
2023-05-10T00:10:28.461Z,15.30
2023-05-10T00:12:55.332Z,15.30
2023-05-10T00:15:22.204Z,15.30
2023-05-10T00:17:49.231Z,15.30
2023-05-10T00:20:16.450Z,15.20
2023-05-10T00:22:43.445Z,15.20
2023-05-10T00:25:11.343Z,15.10
2023-05-10T00:27:38.229Z,15.10
2023-05-10T00:30:06.031Z,15.00
2023-05-10T00:32:33.060Z,14.80
2023-05-10T00:35:00.013Z,14.80
2023-05-10T00:37:27.501Z,14.70
2023-05-10T00:39:55.320Z,14.60
2023-05-10T00:42:23.252Z,14.60
2023-05-10T00:44:52.256Z,14.50
2023-05-10T00:47:19.211Z,14.60
2023-05-10T00:49:46.887Z,14.50
2023-05-10T00:52:14.394Z,14.50
2023-05-10T00:54:42.184Z,14.40
2023-05-10T00:57:09.676Z,14.40
2023-05-10T00:59:36.565Z,14.40
2023-05-10T01:02:03.777Z,14.40
2023-05-10T01:04:31.568Z,14.40
2023-05-10T01:06:58.745Z,14.40
2023-05-10T01:09:27.323Z,14.40
2023-05-10T01:11:56.021Z,14.40
2023-05-10T01:14:23.097Z,14.40
2023-05-10T01:16:51.103Z,14.40
2023-05-10T01:19:22.208Z,14.40
2023-05-10T01:22:30.429Z,14.30
2023-05-10T01:25:24.245Z,14.40
2023-05-10T01:28:15.733Z,14.40
2023-05-10T01:31:09.249Z,14.40
2023-05-10T01:33:47.779Z,14.40
2023-05-10T01:36:26.960Z,14.30
2023-05-10T01:38:59.978Z,14.30
2023-05-10T01:41:32.823Z,14.30
2023-05-10T01:44:32.322Z,14.30
2023-05-10T01:47:07.287Z,14.30
2023-05-10T01:49:42.127Z,14.30
2023-05-10T01:52:12.943Z,14.40
2023-05-10T01:54:47.648Z,14.40
2023-05-10T01:57:16.533Z,14.40
2023-05-10T01:59:46.482Z,14.40
2023-05-10T02:02:14.845Z,14.40
2023-05-10T02:04:43.206Z,14.40
2023-05-10T02:07:11.250Z,14.30
2023-05-10T02:09:39.262Z,14.30
2023-05-10T02:12:08.598Z,14.30
2023-05-10T02:14:37.952Z,14.20
2023-05-10T02:17:07.051Z,14.20
2023-05-10T02:19:35.571Z,14.30
2023-05-10T02:22:04.082Z,14.20
2023-05-10T02:24:34.610Z,14.30
2023-05-10T02:27:02.877Z,14.20
2023-05-10T02:29:31.074Z,14.20
2023-05-10T02:31:59.591Z,14.20
2023-05-10T02:34:30.909Z,14.20
2023-05-10T02:36:58.853Z,14.20
2023-05-10T02:39:29.618Z,14.20
2023-05-10T02:41:58.356Z,14.20
2023-05-10T02:44:28.485Z,14.20
2023-05-10T02:46:57.059Z,14.20
2023-05-10T02:49:24.066Z,14.20
2023-05-10T02:51:56.445Z,14.20
2023-05-10T02:54:30.859Z,14.20
2023-05-10T02:57:02.740Z,14.20
2023-05-10T02:59:29.709Z,14.20
2023-05-10T03:01:56.633Z,14.20
2023-05-10T03:04:23.738Z,14.20
2023-05-10T03:06:52.750Z,14.20
2023-05-10T03:09:20.911Z,14.30
2023-05-10T03:12:29.284Z,14.30
2023-05-10T03:15:09.403Z,14.30
2023-05-10T03:17:42.684Z,14.30
2023-05-10T03:20:17.780Z,14.20
2023-05-10T03:23:19.165Z,14.30
2023-05-10T03:25:48.919Z,14.20
2023-05-10T03:28:18.746Z,14.20
2023-05-10T03:30:47.207Z,14.20
2023-05-10T03:33:15.193Z,14.30
2023-05-10T03:35:46.917Z,14.30
2023-05-10T03:38:14.997Z,14.20
2023-05-10T03:40:41.954Z,14.20
2023-05-10T03:43:09.398Z,14.20
2023-05-10T03:45:36.605Z,14.20
2023-05-10T03:48:03.713Z,14.20
2023-05-10T03:50:30.696Z,14.20
2023-05-10T03:52:58.287Z,14.20
2023-05-10T03:55:25.359Z,14.10
2023-05-10T03:57:52.239Z,14.10
2023-05-10T04:00:19.947Z,14.00
2023-05-10T04:02:50.957Z,14.00
2023-05-10T04:05:20.135Z,13.90
2023-05-10T04:07:48.113Z,13.90
2023-05-10T04:10:17.407Z,13.90
2023-05-10T04:12:44.536Z,13.90
2023-05-10T04:15:11.522Z,13.80
2023-05-10T04:17:38.664Z,13.80
2023-05-10T04:20:06.275Z,13.80
2023-05-10T04:22:33.491Z,13.80
2023-05-10T04:25:00.479Z,13.80
2023-05-10T04:27:27.454Z,13.80
2023-05-10T04:29:54.318Z,13.80
2023-05-10T04:32:21.495Z,13.90
2023-05-10T04:34:48.490Z,13.90
2023-05-10T04:37:15.630Z,13.90
2023-05-10T04:39:42.612Z,13.90
2023-05-10T04:42:09.717Z,14.00
2023-05-10T04:44:37.194Z,13.90
2023-05-10T04:47:04.173Z,13.90
2023-05-10T04:49:31.095Z,13.90
2023-05-10T04:51:57.864Z,14.00
2023-05-10T04:54:24.925Z,14.00
2023-05-10T04:56:51.928Z,14.00
2023-05-10T04:59:18.747Z,14.00
2023-05-10T05:01:45.603Z,14.00
2023-05-10T05:04:12.509Z,14.10
2023-05-10T05:06:39.444Z,14.10
2023-05-10T05:09:06.337Z,14.10
2023-05-10T05:11:33.144Z,14.10
2023-05-10T05:14:00.559Z,14.10
2023-05-10T05:16:27.473Z,14.10
2023-05-10T05:18:54.411Z,14.10
2023-05-10T05:21:22.454Z,14.20
2023-05-10T05:23:49.309Z,14.20
2023-05-10T05:26:16.289Z,14.20
2023-05-10T05:28:43.201Z,14.20
2023-05-10T05:31:10.294Z,14.20
2023-05-10T05:33:37.749Z,14.30
2023-05-10T05:36:06.065Z,14.20
2023-05-10T05:38:32.965Z,14.30
2023-05-10T05:40:59.804Z,14.20
2023-05-10T05:43:26.850Z,14.20
2023-05-10T05:45:55.042Z,14.30
2023-05-10T05:48:22.293Z,14.30
2023-05-10T05:50:49.189Z,14.30
2023-05-10T05:53:16.761Z,14.40
2023-05-10T05:55:58.862Z,14.40
2023-05-10T05:58:29.055Z,14.40
2023-05-10T06:00:56.089Z,14.40
2023-05-10T06:03:23.128Z,14.40
2023-05-10T06:05:50.327Z,14.40
2023-05-10T06:08:17.230Z,14.50
2023-05-10T06:10:44.221Z,14.50
2023-05-10T06:13:11.831Z,14.50
2023-05-10T06:15:39.418Z,14.50
2023-05-10T06:18:07.049Z,14.50
2023-05-10T06:20:34.056Z,14.50
2023-05-10T06:23:01.074Z,14.50
2023-05-10T06:25:28.148Z,14.50
2023-05-10T06:27:58.441Z,14.60
2023-05-10T06:30:29.264Z,14.50
2023-05-10T06:32:56.401Z,14.50
2023-05-10T06:35:23.737Z,14.60
2023-05-10T06:37:51.179Z,14.60
2023-05-10T06:40:18.520Z,14.60
2023-05-10T06:42:46.307Z,14.60
2023-05-10T06:45:13.794Z,14.60
2023-05-10T06:47:41.456Z,14.60
2023-05-10T06:50:12.531Z,14.60
2023-05-10T06:52:39.906Z,14.60
2023-05-10T06:55:07.310Z,14.60
2023-05-10T06:57:34.201Z,14.60
2023-05-10T07:00:01.281Z,14.70
2023-05-10T07:02:28.823Z,14.70
2023-05-10T07:04:55.933Z,14.70
2023-05-10T07:07:22.902Z,14.80
2023-05-10T07:09:50.963Z,14.80
2023-05-10T07:12:18.412Z,14.80
2023-05-10T07:14:45.475Z,14.80
2023-05-10T07:17:12.560Z,14.80
2023-05-10T07:19:39.640Z,14.90
2023-05-10T07:22:06.728Z,14.90
2023-05-10T07:24:34.476Z,15.00
2023-05-10T07:27:01.355Z,15.00
2023-05-10T07:29:28.478Z,15.10
2023-05-10T07:31:58.516Z,15.10
2023-05-10T07:34:26.085Z,15.10
2023-05-10T07:36:53.531Z,15.10
2023-05-10T07:39:27.300Z,15.10
2023-05-10T07:41:58.236Z,15.10
2023-05-10T07:44:25.266Z,15.20
2023-05-10T07:46:52.416Z,15.20
2023-05-10T07:49:19.322Z,15.30
2023-05-10T07:51:46.288Z,15.30
2023-05-10T07:54:13.756Z,15.40
2023-05-10T07:56:45.786Z,15.40
2023-05-10T07:59:16.953Z,15.40
2023-05-10T08:01:44.491Z,15.40
2023-05-10T08:04:12.571Z,15.40
2023-05-10T08:06:40.439Z,15.40
2023-05-10T08:09:07.385Z,15.40
2023-05-10T08:11:35.181Z,15.50
2023-05-10T08:14:02.339Z,15.50
2023-05-10T08:16:29.891Z,15.50
2023-05-10T08:18:57.052Z,15.50
2023-05-10T08:21:23.980Z,15.60
2023-05-10T08:23:51.046Z,15.70
2023-05-10T08:26:18.003Z,15.70
2023-05-10T08:28:44.929Z,15.80
2023-05-10T08:31:11.884Z,15.80
2023-05-10T08:33:38.821Z,15.80
2023-05-10T08:36:05.781Z,15.80
2023-05-10T08:38:32.747Z,15.80
2023-05-10T08:41:00.462Z,15.70
2023-05-10T08:43:31.749Z,15.60
2023-05-10T08:46:03.761Z,15.60
2023-05-10T08:48:32.216Z,15.60
2023-05-10T08:51:01.345Z,15.70
2023-05-10T08:53:29.883Z,15.70
2023-05-10T08:55:57.087Z,15.80
2023-05-10T08:58:24.117Z,15.90
2023-05-10T09:00:54.040Z,15.90
2023-05-10T09:03:21.190Z,16.00
2023-05-10T09:05:49.775Z,16.00
2023-05-10T09:08:17.697Z,16.00
2023-05-10T09:10:48.144Z,16.00
2023-05-10T09:13:16.723Z,15.90
2023-05-10T09:15:44.958Z,15.80
2023-05-10T09:18:12.570Z,15.80
2023-05-10T09:20:39.546Z,15.80
2023-05-10T09:23:06.877Z,15.80
2023-05-10T09:25:36.852Z,15.80
2023-05-10T09:28:08.364Z,15.70
2023-05-10T09:30:36.315Z,15.70
2023-05-10T09:33:03.705Z,15.80
2023-05-10T09:35:32.674Z,15.80
2023-05-10T09:38:03.287Z,15.80
2023-05-10T09:40:31.099Z,15.90
2023-05-10T09:43:24.512Z,15.90
2023-05-10T09:45:51.427Z,16.00
2023-05-10T09:48:18.353Z,16.00
2023-05-10T09:50:45.296Z,16.10
2023-05-10T09:53:16.883Z,16.20
2023-05-10T09:55:50.300Z,16.20
2023-05-10T09:58:17.399Z,16.30
2023-05-10T10:00:45.971Z,16.30
2023-05-10T10:03:17.628Z,16.40
2023-05-10T10:05:45.724Z,16.50
2023-05-10T10:08:13.627Z,16.60
2023-05-10T10:10:41.694Z,16.60
2023-05-10T10:13:09.023Z,16.70
2023-05-10T10:15:36.538Z,16.80
2023-05-10T10:18:05.302Z,16.90
2023-05-10T10:20:32.572Z,17.00
2023-05-10T10:22:59.409Z,16.90
2023-05-10T10:25:26.577Z,16.90
2023-05-10T10:27:53.544Z,17.00
2023-05-10T10:30:42.619Z,17.00
2023-05-10T10:34:03.736Z,17.00
2023-05-10T10:36:31.355Z,17.00
2023-05-10T10:39:02.566Z,17.00
2023-05-10T10:41:37.722Z,17.00
2023-05-10T10:44:26.252Z,17.00
2023-05-10T10:47:25.621Z,17.00
2023-05-10T10:50:02.031Z,16.80
2023-05-10T10:52:33.952Z,16.50
2023-05-10T10:55:10.789Z,16.20
2023-05-10T10:58:05.301Z,15.90
2023-05-10T11:00:37.168Z,15.70
2023-05-10T11:03:09.849Z,15.50
2023-05-10T11:05:38.544Z,15.40
2023-05-10T11:08:20.420Z,15.30
2023-05-10T11:11:04.622Z,15.20
2023-05-10T11:13:43.631Z,15.10
2023-05-10T11:16:13.451Z,15.10
2023-05-10T11:18:41.075Z,15.10
2023-05-10T11:21:11.836Z,15.20
2023-05-10T11:23:44.929Z,15.20
2023-05-10T11:26:13.141Z,15.30
2023-05-10T11:28:48.251Z,15.30
2023-05-10T11:31:16.882Z,15.40
2023-05-10T11:33:52.159Z,15.40
2023-05-10T11:36:21.518Z,15.50
2023-05-10T11:38:49.105Z,15.50
2023-05-10T11:41:18.356Z,15.60
2023-05-10T11:43:47.809Z,15.60
2023-05-10T11:46:15.100Z,15.70
2023-05-10T11:48:43.750Z,15.70
2023-05-10T11:51:11.809Z,15.80
2023-05-10T11:53:39.249Z,15.90
2023-05-10T11:56:12.948Z,16.00
2023-05-10T11:58:40.593Z,16.00
2023-05-10T12:01:09.040Z,16.20
2023-05-10T12:03:36.657Z,16.20
2023-05-10T12:06:04.134Z,16.40
2023-05-10T12:08:31.987Z,16.50
2023-05-10T12:11:11.362Z,16.50
2023-05-10T12:13:42.754Z,16.60
2023-05-10T12:16:18.852Z,16.70
2023-05-10T12:18:48.966Z,16.70
2023-05-10T12:21:16.482Z,16.70
2023-05-10T12:23:43.557Z,16.80
2023-05-10T12:26:11.415Z,16.80
2023-05-10T12:28:38.832Z,16.80
2023-05-10T12:31:07.222Z,16.80
2023-05-10T12:33:45.576Z,16.80
2023-05-10T12:36:14.113Z,16.70
2023-05-10T12:38:46.820Z,16.70
2023-05-10T12:41:16.548Z,16.70
2023-05-10T12:43:43.673Z,16.60
2023-05-10T12:46:15.454Z,16.50
2023-05-10T12:48:44.336Z,16.50
2023-05-10T12:51:13.616Z,16.50
2023-05-10T12:53:42.559Z,16.60
2023-05-10T12:56:11.581Z,16.60
2023-05-10T12:58:40.098Z,16.60
2023-05-10T13:01:07.322Z,16.60
2023-05-10T13:03:34.329Z,16.70
2023-05-10T13:06:01.271Z,16.70
2023-05-10T13:08:28.729Z,16.80
2023-05-10T13:10:55.716Z,16.90
2023-05-10T13:13:22.797Z,16.90
2023-05-10T13:15:49.669Z,16.90
2023-05-10T13:18:16.604Z,17.00
2023-05-10T13:20:45.263Z,16.90
2023-05-10T13:23:12.195Z,16.90
2023-05-10T13:25:39.247Z,16.80
2023-05-10T13:28:06.195Z,16.90
2023-05-10T13:30:33.100Z,16.80
2023-05-10T13:33:00.110Z,16.80
2023-05-10T13:35:27.173Z,16.80
2023-05-10T13:37:54.596Z,16.90
2023-05-10T13:40:21.578Z,16.90
2023-05-10T13:42:48.469Z,16.90
2023-05-10T13:45:15.768Z,17.00
2023-05-10T13:47:42.828Z,17.10
2023-05-10T13:50:10.002Z,17.20
2023-05-10T13:52:36.916Z,17.20
2023-05-10T13:55:04.164Z,17.30
2023-05-10T13:57:31.525Z,17.30
2023-05-10T13:59:58.618Z,17.30
2023-05-10T14:02:26.825Z,17.20
2023-05-10T14:04:53.777Z,17.20
2023-05-10T14:07:20.791Z,17.20
2023-05-10T14:09:47.769Z,17.20
2023-05-10T14:12:16.416Z,17.10
2023-05-10T14:14:43.357Z,17.10
2023-05-10T14:17:12.412Z,17.10
2023-05-10T14:19:40.473Z,17.10
2023-05-10T14:22:07.539Z,17.20
2023-05-10T14:24:34.533Z,17.20
2023-05-10T14:27:01.802Z,17.20
2023-05-10T14:29:28.834Z,17.20
2023-05-10T14:31:55.892Z,17.10
2023-05-10T14:34:22.949Z,17.20
2023-05-10T14:36:50.988Z,17.20
2023-05-10T14:39:17.950Z,17.20
2023-05-10T14:41:46.688Z,17.20
2023-05-10T14:44:14.145Z,17.30
2023-05-10T14:46:41.205Z,17.30
2023-05-10T14:49:08.333Z,17.40
2023-05-10T14:51:35.219Z,17.40
2023-05-10T14:54:03.398Z,17.50
2023-05-10T14:56:30.288Z,17.50
2023-05-10T14:58:57.120Z,17.50
2023-05-10T15:01:24.495Z,17.50
2023-05-10T15:03:51.827Z,17.50
2023-05-10T15:06:26.121Z,17.50
2023-05-10T15:08:53.021Z,17.50
2023-05-10T15:11:19.852Z,17.50
2023-05-10T15:13:46.643Z,17.50
2023-05-10T15:16:13.520Z,17.50
2023-05-10T15:18:40.487Z,17.40
2023-05-10T15:21:07.416Z,17.40
2023-05-10T15:23:34.249Z,17.30
2023-05-10T15:26:01.816Z,17.30
2023-05-10T15:28:28.635Z,17.30
2023-05-10T15:30:57.125Z,17.30
2023-05-10T15:33:24.235Z,17.30
2023-05-10T15:35:51.106Z,17.30
2023-05-10T15:38:17.886Z,17.30
2023-05-10T15:40:44.753Z,17.30
2023-05-10T15:43:11.660Z,17.30
2023-05-10T15:45:38.485Z,17.40
2023-05-10T15:48:05.749Z,17.50
2023-05-10T15:50:32.549Z,17.50
2023-05-10T15:52:59.337Z,17.50
2023-05-10T15:55:26.711Z,17.50
2023-05-10T15:57:53.621Z,17.50
2023-05-10T16:00:20.673Z,17.50
2023-05-10T16:02:47.529Z,17.50
2023-05-10T16:05:14.724Z,17.50
2023-05-10T16:07:42.345Z,17.50
2023-05-10T16:10:10.846Z,17.60
2023-05-10T16:12:38.376Z,17.60
2023-05-10T16:15:06.098Z,17.50
2023-05-10T16:17:32.952Z,17.50
2023-05-10T16:19:59.834Z,17.40
2023-05-10T16:22:29.860Z,17.40
2023-05-10T16:25:00.088Z,17.30
2023-05-10T16:27:30.235Z,17.30
2023-05-10T16:29:57.194Z,17.20
2023-05-10T16:32:24.019Z,17.10
2023-05-10T16:34:51.027Z,17.10
2023-05-10T16:37:17.865Z,17.00
2023-05-10T16:39:44.726Z,16.90
2023-05-10T16:42:11.540Z,16.80
2023-05-10T16:44:38.525Z,16.80
2023-05-10T16:47:05.353Z,16.70
2023-05-10T16:49:32.156Z,16.60
2023-05-10T16:52:00.610Z,16.50
2023-05-10T16:54:29.155Z,16.40
2023-05-10T16:56:55.995Z,16.30
2023-05-10T16:59:22.787Z,16.20
2023-05-10T17:01:49.661Z,16.10
2023-05-10T17:04:16.712Z,16.00
2023-05-10T17:06:43.585Z,15.90
2023-05-10T17:09:10.465Z,15.90
2023-05-10T17:11:37.307Z,15.80
2023-05-10T17:14:04.154Z,15.80
2023-05-10T17:16:31.098Z,15.80
2023-05-10T17:18:57.982Z,15.80
2023-05-10T17:21:24.809Z,15.80
2023-05-10T17:23:51.639Z,15.70
2023-05-10T17:26:18.442Z,15.70
2023-05-10T17:28:45.292Z,15.70
2023-05-10T17:31:12.137Z,15.70
2023-05-10T17:33:39.122Z,15.70
2023-05-10T17:36:06.424Z,15.60
2023-05-10T17:38:33.241Z,15.60
2023-05-10T17:41:00.034Z,15.60
2023-05-10T17:43:26.953Z,15.60
2023-05-10T17:45:53.790Z,15.60
2023-05-10T17:48:20.625Z,15.60
2023-05-10T17:50:50.154Z,15.50
2023-05-10T17:53:17.465Z,15.50
2023-05-10T17:55:44.326Z,15.50
2023-05-10T17:58:12.188Z,15.50
2023-05-10T18:00:39.385Z,15.40
2023-05-10T18:03:06.343Z,15.30
2023-05-10T18:05:38.495Z,15.30
2023-05-10T18:08:06.082Z,15.30
2023-05-10T18:10:33.603Z,15.20
2023-05-10T18:13:02.437Z,15.20
2023-05-10T18:15:29.337Z,15.20
2023-05-10T18:17:56.896Z,15.20
2023-05-10T18:20:24.158Z,15.10
2023-05-10T18:22:51.069Z,15.10
2023-05-10T18:25:18.303Z,15.10
2023-05-10T18:27:45.356Z,15.10
2023-05-10T18:30:12.969Z,15.10
2023-05-10T18:32:40.002Z,15.10
2023-05-10T18:35:08.114Z,15.00
2023-05-10T18:37:35.657Z,15.00
2023-05-10T18:40:02.751Z,15.00
2023-05-10T18:42:29.659Z,15.00
2023-05-10T18:44:56.474Z,15.00
2023-05-10T18:47:23.479Z,15.00
2023-05-10T18:49:50.334Z,15.00
2023-05-10T18:52:17.193Z,14.90
2023-05-10T18:54:44.033Z,14.90
2023-05-10T18:57:12.405Z,14.90
2023-05-10T18:59:39.238Z,14.90
2023-05-10T19:02:06.142Z,14.90
2023-05-10T19:04:33.134Z,14.80
2023-05-10T19:07:01.980Z,14.90
2023-05-10T19:09:28.918Z,14.90
2023-05-10T19:11:56.152Z,14.80
2023-05-10T19:14:24.891Z,14.80
2023-05-10T19:16:51.721Z,14.80
2023-05-10T19:19:19.744Z,14.80
2023-05-10T19:21:47.752Z,14.80
2023-05-10T19:24:14.816Z,14.80
2023-05-10T19:26:41.678Z,14.70
2023-05-10T19:29:08.568Z,14.70
2023-05-10T19:31:35.454Z,14.70
2023-05-10T19:34:03.747Z,14.70
2023-05-10T19:36:32.633Z,14.70
2023-05-10T19:38:59.690Z,14.70
2023-05-10T19:41:26.816Z,14.60
2023-05-10T19:43:53.859Z,14.60
2023-05-10T19:46:20.776Z,14.60
2023-05-10T19:48:47.704Z,14.60
2023-05-10T19:51:14.616Z,14.60
2023-05-10T19:53:44.764Z,14.60
2023-05-10T19:56:12.700Z,14.50
2023-05-10T19:58:40.056Z,14.50
2023-05-10T20:01:07.909Z,14.50
2023-05-10T20:03:35.647Z,14.50
2023-05-10T20:06:02.852Z,14.50
2023-05-10T20:08:30.176Z,14.50
2023-05-10T20:11:02.554Z,14.50
2023-05-10T20:13:29.862Z,14.40
2023-05-10T20:15:59.973Z,14.40
2023-05-10T20:18:27.111Z,14.40
2023-05-10T20:20:58.998Z,14.40
2023-05-10T20:23:26.464Z,14.40
2023-05-10T20:25:54.773Z,14.30
2023-05-10T20:28:23.494Z,14.30
2023-05-10T20:30:55.287Z,14.30
2023-05-10T20:33:23.059Z,14.30
2023-05-10T20:35:51.243Z,14.30
2023-05-10T20:38:18.421Z,14.30
2023-05-10T20:40:45.482Z,14.30
2023-05-10T20:43:12.339Z,14.20
2023-05-10T20:45:39.335Z,14.20
2023-05-10T20:48:06.469Z,14.10
2023-05-10T20:50:33.422Z,14.10
2023-05-10T20:53:01.093Z,14.00
2023-05-10T20:55:28.609Z,14.00
2023-05-10T20:57:55.514Z,14.00
2023-05-10T21:00:22.473Z,14.00
2023-05-10T21:02:49.526Z,13.90
2023-05-10T21:05:18.415Z,13.90
2023-05-10T21:07:45.379Z,13.90
2023-05-10T21:10:12.471Z,13.90
2023-05-10T21:12:39.346Z,13.90
2023-05-10T21:15:06.722Z,13.80
2023-05-10T21:17:33.974Z,13.80
2023-05-10T21:20:00.824Z,13.80
2023-05-10T21:22:27.708Z,13.80
2023-05-10T21:24:54.626Z,13.80
2023-05-10T21:27:21.470Z,13.80
2023-05-10T21:29:48.308Z,13.70
2023-05-10T21:32:15.132Z,13.70
2023-05-10T21:34:42.070Z,13.70
2023-05-10T21:37:09.019Z,13.70
2023-05-10T21:39:36.083Z,13.70
2023-05-10T21:42:03.800Z,13.70
2023-05-10T21:44:31.786Z,13.70
2023-05-10T21:46:58.697Z,13.70
2023-05-10T21:49:27.033Z,13.70
2023-05-10T21:51:53.890Z,13.70
2023-05-10T21:54:20.737Z,13.60
2023-05-10T21:56:47.660Z,13.60
2023-05-10T21:59:14.460Z,13.60
2023-05-10T22:01:41.879Z,13.60
2023-05-10T22:04:08.785Z,13.60
2023-05-10T22:06:38.876Z,13.60
2023-05-10T22:09:06.542Z,13.50
2023-05-10T22:11:33.453Z,13.50
2023-05-10T22:14:00.255Z,13.50
2023-05-10T22:16:27.135Z,13.50
2023-05-10T22:18:54.603Z,13.40
2023-05-10T22:21:21.584Z,13.40
2023-05-10T22:23:48.469Z,13.40
2023-05-10T22:26:15.336Z,13.40
2023-05-10T22:28:42.258Z,13.40
2023-05-10T22:31:11.547Z,13.30
2023-05-10T22:33:38.570Z,13.30
2023-05-10T22:36:06.657Z,13.30
2023-05-10T22:38:33.460Z,13.30
2023-05-10T22:41:00.248Z,13.30
2023-05-10T22:43:27.068Z,13.20
2023-05-10T22:45:54.299Z,13.20
2023-05-10T22:48:21.216Z,13.20
2023-05-10T22:50:48.020Z,13.10
2023-05-10T22:53:15.155Z,13.10
2023-05-10T22:55:42.141Z,13.10
2023-05-10T22:58:09.058Z,13.10
2023-05-10T23:00:36.135Z,13.00
2023-05-10T23:03:03.041Z,13.10
2023-05-10T23:05:29.966Z,13.10
2023-05-10T23:07:56.850Z,13.10
2023-05-10T23:10:23.848Z,13.10
2023-05-10T23:12:50.708Z,13.10
2023-05-10T23:15:17.554Z,13.10
2023-05-10T23:17:44.596Z,13.10
2023-05-10T23:20:12.211Z,13.10
2023-05-10T23:22:39.299Z,13.10
2023-05-10T23:25:07.005Z,13.10
2023-05-10T23:27:33.864Z,13.00
2023-05-10T23:30:00.787Z,13.00
2023-05-10T23:32:27.640Z,13.00
2023-05-10T23:34:54.487Z,13.00
2023-05-10T23:37:21.333Z,13.00
2023-05-10T23:39:48.166Z,13.00
2023-05-10T23:42:15.103Z,13.00
2023-05-10T23:44:41.956Z,13.10
2023-05-10T23:47:08.757Z,13.00
2023-05-10T23:49:35.655Z,13.00
2023-05-10T23:52:02.486Z,13.10
2023-05-10T23:54:29.592Z,13.10
2023-05-10T23:56:56.375Z,13.10
2023-05-10T23:59:23.344Z,13.10
